createdAt,value
2023-03-26T00:00:45.608Z,53
2023-03-26T00:20:49.908Z,52
2023-03-26T00:40:47.856Z,51
2023-03-26T01:00:47.156Z,52
2023-03-26T01:20:51.878Z,51
2023-03-26T01:40:47.710Z,51
2023-03-26T02:00:46.402Z,50
2023-03-26T02:20:50.253Z,51
2023-03-26T02:40:48.817Z,50
2023-03-26T03:00:46.212Z,49
2023-03-26T03:20:46.325Z,49
2023-03-26T03:40:46.591Z,50
2023-03-26T04:01:08.879Z,49
2023-03-26T04:20:47.724Z,50
2023-03-26T04:40:46.706Z,48
2023-03-26T05:00:49.697Z,49
2023-03-26T05:20:48.143Z,48
2023-03-26T05:40:45.935Z,50
2023-03-26T06:01:18.165Z,48
2023-03-26T06:21:11.689Z,49
2023-03-26T06:41:17.522Z,48
2023-03-26T07:01:13.038Z,49
2023-03-26T07:21:18.510Z,52
2023-03-26T07:41:16.658Z,52
2023-03-26T08:01:10.687Z,51
2023-03-26T08:21:12.189Z,51
2023-03-26T08:41:17.602Z,50
2023-03-26T09:01:12.850Z,51
2023-03-26T09:21:17.295Z,48
2023-03-26T09:41:11.961Z,48
2023-03-26T10:01:11.608Z,48
2023-03-26T10:21:11.643Z,48
2023-03-26T10:41:12.472Z,47
2023-03-26T11:01:13.154Z,47
2023-03-26T11:21:35.808Z,46
2023-03-26T11:41:10.912Z,48
2023-03-26T12:01:11.814Z,48
2023-03-26T12:21:13.597Z,49
2023-03-26T12:44:58.593Z,49
2023-03-26T13:01:12.937Z,49
2023-03-26T13:21:11.939Z,53
2023-03-26T13:41:17.756Z,50
2023-03-26T14:01:13.362Z,50
2023-03-26T14:21:17.911Z,50
2023-03-26T14:41:19.369Z,50
2023-03-26T15:01:13.884Z,50
2023-03-26T15:21:11.974Z,52
2023-03-26T15:41:11.527Z,52
2023-03-26T16:01:18.144Z,50
2023-03-26T16:21:32.885Z,50
2023-03-26T16:40:46.427Z,51
2023-03-26T17:01:12.233Z,52
2023-03-26T17:21:11.491Z,51
2023-03-26T17:41:18.208Z,54
2023-03-26T18:00:49.182Z,54
2023-03-26T18:20:49.685Z,54
2023-03-26T18:40:46.190Z,55
2023-03-26T19:00:46.556Z,56
2023-03-26T19:20:46.637Z,54
2023-03-26T19:40:46.788Z,54
2023-03-26T20:00:46.958Z,53
2023-03-26T20:20:47.923Z,53
2023-03-26T20:40:46.704Z,52
2023-03-26T21:00:46.314Z,52
2023-03-26T21:20:46.282Z,53
2023-03-26T21:41:05.396Z,52
2023-03-26T22:00:53.334Z,53
2023-03-26T22:20:49.402Z,52
2023-03-26T22:40:46.475Z,53
2023-03-26T23:00:47.048Z,52
2023-03-26T23:20:54.820Z,52
2023-03-26T23:40:57.909Z,52
